Reardan, Washington
Current Conditions -  °F | °C
As of 4:43 PM on Tuesday 25 Nov 2014 (Local Time) from KSKA Reporting Station
Light Rain Light Rain  
Wind Chill: 26°   Ceiling: Unl
Heat Index: 32°   Visibility: 10mi
Dew Point: 32°   Wind: 7mph
Humidity: 100%   Direction: 10°N
Pressure: 30.19"   Gusts: NA
Location:  47.67°N, 117.88°W
Report Text: KSKA 260043Z AUTO 01006KT 10SM -RA SCT017 00/00 A3019 RMK AO2
Loading
Personal Weather Stations






























Interactive Weather Map New forecast layout! Learn more

10-Day Weather Forecast

Advertisements
Track Severe Weather on mobile